sensor_id;sensor_type;location;lat;lon;timestamp;pressure;altitude;pressure_sealevel;temperature;humidity
68145;BME280;55400;51.824;-0.196;2023-03-25T00:03:16;98883.18000000001;;;8.37;68.78
68145;BME280;55400;51.824;-0.196;2023-03-25T00:07:16;98875.98000000001;;;8.33;68.78
68145;BME280;55400;51.824;-0.196;2023-03-25T00:11:16;98875.8;;;8.29;69.89
68145;BME280;55400;51.824;-0.196;2023-03-25T00:15:16;98878.39;;;8.30;69.38
68145;BME280;55400;51.824;-0.196;2023-03-25T00:19:16;98880.52;;;8.24;69.49
68145;BME280;55400;51.824;-0.196;2023-03-25T00:27:16;98888.78;;;8.26;69.26
68145;BME280;55400;51.824;-0.196;2023-03-25T00:31:16;98892.21;;;8.22;68.37
68145;BME280;55400;51.824;-0.196;2023-03-25T00:35:16;98872.41;;;8.17;68.36
68145;BME280;55400;51.824;-0.196;2023-03-25T00:39:16;98872.41;;;8.12;67.83
68145;BME280;55400;51.824;-0.196;2023-03-25T00:43:16;98871.33;;;8.11;67.46
68145;BME280;55400;51.824;-0.196;2023-03-25T00:47:16;98866.13;;;8.02;67.46
68145;BME280;55400;51.824;-0.196;2023-03-25T00:51:17;98870.94;;;8.05;67.73
68145;BME280;55400;51.824;-0.196;2023-03-25T00:55:16;98869.47;;;8.04;67.73
68145;BME280;55400;51.824;-0.196;2023-03-25T00:59:16;98877.45;;;8.02;67.57
68145;BME280;55400;51.824;-0.196;2023-03-25T01:03:16;98877.45;;;8.01;67.57
68145;BME280;55400;51.824;-0.196;2023-03-25T01:07:17;98887.92;;;8.05;67.69
68145;BME280;55400;51.824;-0.196;2023-03-25T01:11:18;98887.92;;;8.02;67.41
68145;BME280;55400;51.824;-0.196;2023-03-25T01:15:16;98891.31;;;8.05;67.24
68145;BME280;55400;51.824;-0.196;2023-03-25T01:19:16;98889.59999999999;;;8.08;67.60
68145;BME280;55400;51.824;-0.196;2023-03-25T01:27:16;98886.65;;;8.05;68.29
68145;BME280;55400;51.824;-0.196;2023-03-25T01:31:16;98892.0;;;8.06;68.55
68145;BME280;55400;51.824;-0.196;2023-03-25T01:35:17;98889.54;;;8.09;68.55
68145;BME280;55400;51.824;-0.196;2023-03-25T01:39:17;98880.75;;;8.03;68.88
68145;BME280;55400;51.824;-0.196;2023-03-25T01:43:16;98880.75;;;8.08;69.12
68145;BME280;55400;51.824;-0.196;2023-03-25T01:47:16;98886.14;;;8.04;69.34
68145;BME280;55400;51.824;-0.196;2023-03-25T01:51:17;98869.33;;;7.97;69.76
68145;BME280;55400;51.824;-0.196;2023-03-25T01:55:16;98869.33;;;7.98;69.76
68145;BME280;55400;51.824;-0.196;2023-03-25T02:03:17;98879.33;;;7.96;70.03
68145;BME280;55400;51.824;-0.196;2023-03-25T02:07:17;98872.66;;;7.90;70.03
68145;BME280;55400;51.824;-0.196;2023-03-25T02:11:17;98879.74;;;7.87;70.45
68145;BME280;55400;51.824;-0.196;2023-03-25T02:15:17;98879.74;;;7.82;70.45
68145;BME280;55400;51.824;-0.196;2023-03-25T02:19:24;98884.53;;;7.89;70.62
68145;BME280;55400;51.824;-0.196;2023-03-25T02:23:21;98884.91;;;7.87;70.53
68145;BME280;55400;51.824;-0.196;2023-03-25T02:27:19;98885.13;;;7.88;70.65
68145;BME280;55400;51.824;-0.196;2023-03-25T02:35:23;98876.75;;;7.83;71.15
68145;BME280;55400;51.824;-0.196;2023-03-25T02:39:18;98883.03;;;7.78;71.65
68145;BME280;55400;51.824;-0.196;2023-03-25T02:43:17;98883.31;;;7.82;71.91
68145;BME280;55400;51.824;-0.196;2023-03-25T02:47:17;98882.78;;;7.86;72.23
68145;BME280;55400;51.824;-0.196;2023-03-25T02:51:19;98896.56;;;7.81;72.14
68145;BME280;55400;51.824;-0.196;2023-03-25T02:55:17;98896.56;;;7.82;72.38
68145;BME280;55400;51.824;-0.196;2023-03-25T02:59:17;98893.52;;;7.85;72.50
68145;BME280;55400;51.824;-0.196;2023-03-25T03:03:17;98891.2;;;7.88;72.50
68145;BME280;55400;51.824;-0.196;2023-03-25T03:07:20;98890.08;;;7.92;72.39
68145;BME280;55400;51.824;-0.196;2023-03-25T03:11:18;98900.16;;;7.95;71.89
68145;BME280;55400;51.824;-0.196;2023-03-25T03:15:21;98904.13;;;7.94;71.90
68145;BME280;55400;51.824;-0.196;2023-03-25T03:19:20;98916.28;;;8.01;71.37
68145;BME280;55400;51.824;-0.196;2023-03-25T03:23:18;98901.62;;;8.05;71.37
68145;BME280;55400;51.824;-0.196;2023-03-25T03:27:18;98898.46;;;8.10;71.05
68145;BME280;55400;51.824;-0.196;2023-03-25T03:31:19;98901.21;;;8.15;71.05
68145;BME280;55400;51.824;-0.196;2023-03-25T03:35:17;98901.21;;;8.17;70.70
68145;BME280;55400;51.824;-0.196;2023-03-25T03:39:17;98888.67;;;8.13;70.42
68145;BME280;55400;51.824;-0.196;2023-03-25T03:43:18;98898.29999999999;;;8.03;70.28
68145;BME280;55400;51.824;-0.196;2023-03-25T03:47:18;98898.29999999999;;;7.95;70.28
68145;BME280;55400;51.824;-0.196;2023-03-25T03:55:18;98911.1;;;7.93;70.94
68145;BME280;55400;51.824;-0.196;2023-03-25T03:59:18;98902.55;;;7.95;71.12
68145;BME280;55400;51.824;-0.196;2023-03-25T04:03:18;98908.72;;;7.99;70.91
68145;BME280;55400;51.824;-0.196;2023-03-25T04:07:17;98908.72;;;7.91;70.91
68145;BME280;55400;51.824;-0.196;2023-03-25T04:11:18;98905.31;;;7.86;71.19
68145;BME280;55400;51.824;-0.196;2023-03-25T04:15:17;98910.39;;;7.85;71.60
68145;BME280;55400;51.824;-0.196;2023-03-25T04:19:17;98912.22;;;7.93;71.92
68145;BME280;55400;51.824;-0.196;2023-03-25T04:23:17;98914.61;;;7.95;71.74
68145;BME280;55400;51.824;-0.196;2023-03-25T04:27:17;98926.75;;;7.96;71.80
68145;BME280;55400;51.824;-0.196;2023-03-25T04:31:17;98936.63;;;7.97;71.96
68145;BME280;55400;51.824;-0.196;2023-03-25T04:35:18;98930.86;;;8.05;72.21
68145;BME280;55400;51.824;-0.196;2023-03-25T04:39:17;98930.86;;;8.07;72.19
68145;BME280;55400;51.824;-0.196;2023-03-25T04:43:17;98937.08;;;8.04;72.14
68145;BME280;55400;51.824;-0.196;2023-03-25T04:47:17;98949.44;;;8.07;72.47
68145;BME280;55400;51.824;-0.196;2023-03-25T04:51:17;98950.56;;;8.10;72.50
68145;BME280;55400;51.824;-0.196;2023-03-25T04:55:17;98950.56;;;8.07;72.48
68145;BME280;55400;51.824;-0.196;2023-03-25T04:59:18;98945.67;;;8.10;72.58
68145;BME280;55400;51.824;-0.196;2023-03-25T05:03:17;98952.99;;;8.15;72.38
68145;BME280;55400;51.824;-0.196;2023-03-25T05:07:17;98952.99;;;8.16;72.38
68145;BME280;55400;51.824;-0.196;2023-03-25T05:11:17;98952.63;;;8.18;72.44
68145;BME280;55400;51.824;-0.196;2023-03-25T05:15:17;98952.63;;;8.24;72.47
68145;BME280;55400;51.824;-0.196;2023-03-25T05:19:17;98952.09;;;8.32;72.17
68145;BME280;55400;51.824;-0.196;2023-03-25T05:23:17;98952.09;;;8.34;71.96
68145;BME280;55400;51.824;-0.196;2023-03-25T05:27:17;98964.79000000001;;;8.38;72.15
68145;BME280;55400;51.824;-0.196;2023-03-25T05:31:17;98960.72;;;8.46;72.03
68145;BME280;55400;51.824;-0.196;2023-03-25T05:35:17;98967.19;;;8.45;71.91
68145;BME280;55400;51.824;-0.196;2023-03-25T05:39:17;98971.08;;;8.48;71.80
68145;BME280;55400;51.824;-0.196;2023-03-25T05:43:17;98983.37;;;8.49;71.72
68145;BME280;55400;51.824;-0.196;2023-03-25T05:47:18;98983.37;;;8.51;71.48
68145;BME280;55400;51.824;-0.196;2023-03-25T05:51:17;98983.22;;;8.45;71.15
68145;BME280;55400;51.824;-0.196;2023-03-25T05:55:18;98988.36;;;8.42;71.27
68145;BME280;55400;51.824;-0.196;2023-03-25T05:59:17;98991.17;;;8.38;71.24
68145;BME280;55400;51.824;-0.196;2023-03-25T06:03:17;98991.17;;;8.39;71.20
68145;BME280;55400;51.824;-0.196;2023-03-25T06:07:17;98990.01;;;8.42;70.88
68145;BME280;55400;51.824;-0.196;2023-03-25T06:11:18;98995.31;;;8.43;70.67
68145;BME280;55400;51.824;-0.196;2023-03-25T06:15:17;99005.38;;;8.40;70.20
68145;BME280;55400;51.824;-0.196;2023-03-25T06:19:17;99005.38;;;8.41;70.20
68145;BME280;55400;51.824;-0.196;2023-03-25T06:27:18;99014.11;;;8.46;69.89
68145;BME280;55400;51.824;-0.196;2023-03-25T06:31:18;99014.11;;;8.49;69.78
68145;BME280;55400;51.824;-0.196;2023-03-25T06:39:17;99029.1;;;8.56;69.52
68145;BME280;55400;51.824;-0.196;2023-03-25T06:43:17;99024.06;;;8.57;69.47
68145;BME280;55400;51.824;-0.196;2023-03-25T06:47:17;99025.75;;;8.62;69.65
68145;BME280;55400;51.824;-0.196;2023-03-25T06:51:17;99021.41;;;8.64;69.58
68145;BME280;55400;51.824;-0.196;2023-03-25T06:55:17;99021.41;;;8.61;69.60
68145;BME280;55400;51.824;-0.196;2023-03-25T06:59:17;99018.16;;;8.60;69.84
68145;BME280;55400;51.824;-0.196;2023-03-25T07:03:17;99025.89;;;8.67;70.28
68145;BME280;55400;51.824;-0.196;2023-03-25T07:07:17;99015.68;;;8.65;69.96
68145;BME280;55400;51.824;-0.196;2023-03-25T07:11:18;99015.68;;;8.66;69.96
68145;BME280;55400;51.824;-0.196;2023-03-25T07:15:17;99037.11;;;8.71;70.28
68145;BME280;55400;51.824;-0.196;2023-03-25T07:19:17;99051.45;;;8.59;71.00
68145;BME280;55400;51.824;-0.196;2023-03-25T07:23:17;99053.19;;;8.58;72.26
68145;BME280;55400;51.824;-0.196;2023-03-25T07:31:17;99062.69;;;8.60;72.12
68145;BME280;55400;51.824;-0.196;2023-03-25T07:35:17;99057.42;;;8.59;71.95
68145;BME280;55400;51.824;-0.196;2023-03-25T07:39:18;99066.21;;;8.60;71.58
68145;BME280;55400;51.824;-0.196;2023-03-25T07:43:17;99074.44;;;8.68;71.46
68145;BME280;55400;51.824;-0.196;2023-03-25T07:47:18;99080.51000000001;;;8.78;71.08
68145;BME280;55400;51.824;-0.196;2023-03-25T07:51:17;99084.34;;;8.86;70.78
68145;BME280;55400;51.824;-0.196;2023-03-25T07:55:17;99084.34;;;8.87;70.01
68145;BME280;55400;51.824;-0.196;2023-03-25T07:59:17;99089.78;;;8.88;69.20
68145;BME280;55400;51.824;-0.196;2023-03-25T08:03:18;99116.56;;;8.80;69.19
68145;BME280;55400;51.824;-0.196;2023-03-25T08:15:18;99140.84;;;8.79;69.42
68145;BME280;55400;51.824;-0.196;2023-03-25T08:19:17;99163.37;;;8.77;68.61
68145;BME280;55400;51.824;-0.196;2023-03-25T08:23:18;99158.01;;;8.81;68.81
68145;BME280;55400;51.824;-0.196;2023-03-25T08:27:18;99175.18;;;8.88;68.98
68145;BME280;55400;51.824;-0.196;2023-03-25T08:31:18;99189.4;;;8.86;68.74
68145;BME280;55400;51.824;-0.196;2023-03-25T08:35:18;99185.53;;;8.89;68.61
68145;BME280;55400;51.824;-0.196;2023-03-25T08:39:18;99198.75;;;8.91;68.29
68145;BME280;55400;51.824;-0.196;2023-03-25T08:43:18;99198.75;;;9.04;68.04
68145;BME280;55400;51.824;-0.196;2023-03-25T08:47:18;99198.99;;;9.19;68.25
68145;BME280;55400;51.824;-0.196;2023-03-25T08:51:18;99219.14;;;9.35;67.19
68145;BME280;55400;51.824;-0.196;2023-03-25T08:55:18;99232.51000000001;;;9.42;67.21
68145;BME280;55400;51.824;-0.196;2023-03-25T08:59:18;99253.51000000001;;;9.44;66.93
68145;BME280;55400;51.824;-0.196;2023-03-25T09:03:18;99257.03;;;9.45;65.95
68145;BME280;55400;51.824;-0.196;2023-03-25T09:07:18;99263.06;;;9.54;66.27
68145;BME280;55400;51.824;-0.196;2023-03-25T09:11:18;99263.06;;;9.60;66.00
68145;BME280;55400;51.824;-0.196;2023-03-25T09:15:18;99273.39;;;9.57;65.86
68145;BME280;55400;51.824;-0.196;2023-03-25T09:23:18;99274.87999999999;;;9.63;65.96
68145;BME280;55400;51.824;-0.196;2023-03-25T09:27:18;99278.8;;;9.66;65.15
68145;BME280;55400;51.824;-0.196;2023-03-25T09:35:18;99306.09;;;9.70;64.71
68145;BME280;55400;51.824;-0.196;2023-03-25T09:39:18;99310.74;;;9.72;65.27
68145;BME280;55400;51.824;-0.196;2023-03-25T09:43:22;99310.74;;;9.80;64.80
68145;BME280;55400;51.824;-0.196;2023-03-25T09:47:18;99317.56;;;9.82;64.59
68145;BME280;55400;51.824;-0.196;2023-03-25T09:51:20;99319.45;;;9.84;64.40
68145;BME280;55400;51.824;-0.196;2023-03-25T09:55:19;99332.01000000001;;;9.95;64.22
68145;BME280;55400;51.824;-0.196;2023-03-25T09:59:19;99343.0;;;10.16;62.94
68145;BME280;55400;51.824;-0.196;2023-03-25T10:03:19;99343.0;;;10.24;63.68
68145;BME280;55400;51.824;-0.196;2023-03-25T10:07:23;99329.28;;;10.43;62.23
68145;BME280;55400;51.824;-0.196;2023-03-25T10:11:20;99350.2;;;10.56;62.23
68145;BME280;55400;51.824;-0.196;2023-03-25T10:15:20;99364.09;;;10.67;59.67
68145;BME280;55400;51.824;-0.196;2023-03-25T10:19:23;99364.09;;;10.54;59.25
68145;BME280;55400;51.824;-0.196;2023-03-25T10:23:20;99365.7;;;10.48;60.29
68145;BME280;55400;51.824;-0.196;2023-03-25T10:27:18;99365.7;;;10.45;60.29
68145;BME280;55400;51.824;-0.196;2023-03-25T10:31:19;99376.05;;;10.51;60.81
68145;BME280;55400;51.824;-0.196;2023-03-25T10:35:19;99383.14;;;10.56;60.63
68145;BME280;55400;51.824;-0.196;2023-03-25T10:39:19;99391.95999999999;;;10.69;59.22
68145;BME280;55400;51.824;-0.196;2023-03-25T10:43:20;99391.95999999999;;;10.82;59.22
68145;BME280;55400;51.824;-0.196;2023-03-25T10:47:19;99399.55;;;10.99;59.24
68145;BME280;55400;51.824;-0.196;2023-03-25T10:51:19;99420.0;;;11.03;58.38
68145;BME280;55400;51.824;-0.196;2023-03-25T10:55:21;99420.0;;;11.01;57.65
68145;BME280;55400;51.824;-0.196;2023-03-25T10:59:19;99417.24;;;11.06;58.69
68145;BME280;55400;51.824;-0.196;2023-03-25T11:03:19;99428.97;;;11.21;56.93
68145;BME280;55400;51.824;-0.196;2023-03-25T11:07:19;99444.62;;;11.33;56.93
68145;BME280;55400;51.824;-0.196;2023-03-25T11:11:18;99441.61;;;11.20;54.86
68145;BME280;55400;51.824;-0.196;2023-03-25T11:15:20;99459.33;;;11.28;54.86
68145;BME280;55400;51.824;-0.196;2023-03-25T11:19:20;99458.95000000001;;;11.37;55.16
68145;BME280;55400;51.824;-0.196;2023-03-25T11:23:20;99458.87;;;11.41;53.97
68145;BME280;55400;51.824;-0.196;2023-03-25T11:27:21;99469.23000000001;;;11.38;55.28
68145;BME280;55400;51.824;-0.196;2023-03-25T11:31:19;99475.56;;;11.33;55.28
68145;BME280;55400;51.824;-0.196;2023-03-25T11:35:21;99467.61;;;11.41;56.52
68145;BME280;55400;51.824;-0.196;2023-03-25T11:39:23;99467.61;;;11.37;56.52
68145;BME280;55400;51.824;-0.196;2023-03-25T11:43:19;99475.04000000001;;;11.41;54.57
68145;BME280;55400;51.824;-0.196;2023-03-25T11:47:19;99486.1;;;11.71;54.59
68145;BME280;55400;51.824;-0.196;2023-03-25T11:51:19;99486.1;;;12.01;55.19
68145;BME280;55400;51.824;-0.196;2023-03-25T11:55:19;99477.4;;;12.29;54.79
68145;BME280;55400;51.824;-0.196;2023-03-25T11:59:21;99478.08;;;12.28;54.58
68145;BME280;55400;51.824;-0.196;2023-03-25T12:03:19;99481.05;;;12.33;54.26
68145;BME280;55400;51.824;-0.196;2023-03-25T12:07:18;99494.11;;;12.29;54.18
68145;BME280;55400;51.824;-0.196;2023-03-25T12:11:19;99494.11;;;12.14;52.91
68145;BME280;55400;51.824;-0.196;2023-03-25T12:15:20;99493.2;;;12.20;53.80
68145;BME280;55400;51.824;-0.196;2023-03-25T12:19:20;99493.2;;;12.26;54.83
68145;BME280;55400;51.824;-0.196;2023-03-25T12:23:19;99500.53;;;12.22;52.41
68145;BME280;55400;51.824;-0.196;2023-03-25T12:27:23;99494.08;;;12.38;53.63
68145;BME280;55400;51.824;-0.196;2023-03-25T12:31:22;99499.36;;;12.42;52.53
68145;BME280;55400;51.824;-0.196;2023-03-25T12:35:21;99499.36;;;12.37;52.53
68145;BME280;55400;51.824;-0.196;2023-03-25T12:39:22;99504.96;;;12.31;53.77
68145;BME280;55400;51.824;-0.196;2023-03-25T12:43:19;99515.53;;;12.27;53.77
68145;BME280;55400;51.824;-0.196;2023-03-25T12:47:20;99502.59;;;12.30;53.75
68145;BME280;55400;51.824;-0.196;2023-03-25T12:51:21;99502.59;;;12.39;55.33
68145;BME280;55400;51.824;-0.196;2023-03-25T12:59:21;99497.91;;;12.24;54.92
68145;BME280;55400;51.824;-0.196;2023-03-25T13:07:19;99508.81000000001;;;12.39;56.14
68145;BME280;55400;51.824;-0.196;2023-03-25T13:11:20;99500.83;;;12.69;57.03
68145;BME280;55400;51.824;-0.196;2023-03-25T13:15:20;99500.83;;;12.85;56.72
68145;BME280;55400;51.824;-0.196;2023-03-25T13:19:19;99527.33;;;12.71;56.25
68145;BME280;55400;51.824;-0.196;2023-03-25T13:23:20;99527.33;;;12.58;60.72
68145;BME280;55400;51.824;-0.196;2023-03-25T13:27:18;99527.01;;;12.42;61.70
68145;BME280;55400;51.824;-0.196;2023-03-25T13:31:20;99527.62;;;12.24;63.52
68145;BME280;55400;51.824;-0.196;2023-03-25T13:35:28;99524.3;;;12.12;62.49
68145;BME280;55400;51.824;-0.196;2023-03-25T13:39:19;99524.3;;;12.01;64.07
68145;BME280;55400;51.824;-0.196;2023-03-25T13:43:20;99531.59000000001;;;11.99;62.32
68145;BME280;55400;51.824;-0.196;2023-03-25T13:47:20;99527.19;;;11.97;62.32
68145;BME280;55400;51.824;-0.196;2023-03-25T13:51:18;99522.92;;;12.15;62.13
68145;BME280;55400;51.824;-0.196;2023-03-25T13:55:19;99520.09000000001;;;12.46;62.13
68145;BME280;55400;51.824;-0.196;2023-03-25T13:59:24;99520.09000000001;;;12.68;61.67
68145;BME280;55400;51.824;-0.196;2023-03-25T14:11:20;99536.33;;;12.54;57.44
68145;BME280;55400;51.824;-0.196;2023-03-25T14:15:19;99534.23;;;12.65;57.57
68145;BME280;55400;51.824;-0.196;2023-03-25T14:19:19;99534.23;;;12.73;57.57
68145;BME280;55400;51.824;-0.196;2023-03-25T14:23:19;99537.31;;;12.71;57.46
68145;BME280;55400;51.824;-0.196;2023-03-25T14:27:21;99535.99;;;12.67;56.75
68145;BME280;55400;51.824;-0.196;2023-03-25T14:31:24;99535.99;;;12.64;57.05
68145;BME280;55400;51.824;-0.196;2023-03-25T14:43:19;99550.12000000001;;;13.03;55.67
68145;BME280;55400;51.824;-0.196;2023-03-25T14:47:27;99560.41;;;13.23;56.89
68145;BME280;55400;51.824;-0.196;2023-03-25T14:51:20;99567.88;;;13.37;57.15
68145;BME280;55400;51.824;-0.196;2023-03-25T14:55:20;99575.12000000001;;;13.31;56.19
68145;BME280;55400;51.824;-0.196;2023-03-25T14:59:20;99575.12000000001;;;13.21;56.19
68145;BME280;55400;51.824;-0.196;2023-03-25T15:03:19;99588.86;;;13.10;56.73
68145;BME280;55400;51.824;-0.196;2023-03-25T15:07:35;99588.86;;;13.00;56.73
68145;BME280;55400;51.824;-0.196;2023-03-25T15:11:24;99592.55;;;12.95;56.74
68145;BME280;55400;51.824;-0.196;2023-03-25T15:15:28;99595.86;;;12.89;57.22
68145;BME280;55400;51.824;-0.196;2023-03-25T15:19:19;99607.69;;;12.77;56.64
68145;BME280;55400;51.824;-0.196;2023-03-25T15:23:21;99596.09;;;12.97;59.67
68145;BME280;55400;51.824;-0.196;2023-03-25T15:31:24;99602.97;;;13.33;58.63
68145;BME280;55400;51.824;-0.196;2023-03-25T15:39:24;99598.25;;;13.81;57.32
68145;BME280;55400;51.824;-0.196;2023-03-25T15:43:23;99598.25;;;13.94;56.15
68145;BME280;55400;51.824;-0.196;2023-03-25T15:47:22;99596.66;;;14.04;55.69
68145;BME280;55400;51.824;-0.196;2023-03-25T15:51:25;99606.06;;;13.98;55.69
68145;BME280;55400;51.824;-0.196;2023-03-25T15:55:19;99606.06;;;13.68;54.13
68145;BME280;55400;51.824;-0.196;2023-03-25T15:59:24;99614.26;;;13.34;54.07
68145;BME280;55400;51.824;-0.196;2023-03-25T16:03:19;99618.51000000001;;;13.13;55.02
68145;BME280;55400;51.824;-0.196;2023-03-25T16:07:19;99618.51000000001;;;12.98;55.02
68145;BME280;55400;51.824;-0.196;2023-03-25T16:11:22;99617.72;;;12.84;55.81
68145;BME280;55400;51.824;-0.196;2023-03-25T16:15:23;99624.69;;;12.71;55.58
68145;BME280;55400;51.824;-0.196;2023-03-25T16:19:20;99624.69;;;12.61;56.13
68145;BME280;55400;51.824;-0.196;2023-03-25T16:23:19;99638.67;;;12.66;56.27
68145;BME280;55400;51.824;-0.196;2023-03-25T16:27:20;99638.5;;;12.71;56.47
68145;BME280;55400;51.824;-0.196;2023-03-25T16:31:26;99639.45;;;12.83;56.06
68145;BME280;55400;51.824;-0.196;2023-03-25T16:35:20;99639.45;;;13.09;55.87
68145;BME280;55400;51.824;-0.196;2023-03-25T16:39:19;99638.85;;;13.36;55.11
68145;BME280;55400;51.824;-0.196;2023-03-25T16:43:19;99638.85;;;13.49;55.11
68145;BME280;55400;51.824;-0.196;2023-03-25T16:47:19;99633.84;;;13.35;55.07
68145;BME280;55400;51.824;-0.196;2023-03-25T16:51:20;99627.25;;;13.11;55.26
68145;BME280;55400;51.824;-0.196;2023-03-25T16:59:20;99626.25;;;13.14;55.64
68145;BME280;55400;51.824;-0.196;2023-03-25T17:07:21;99637.53;;;13.23;55.84
68145;BME280;55400;51.824;-0.196;2023-03-25T17:11:19;99637.53;;;13.19;55.84
68145;BME280;55400;51.824;-0.196;2023-03-25T17:15:19;99641.4;;;13.11;55.51
68145;BME280;55400;51.824;-0.196;2023-03-25T17:19:19;99640.01;;;13.13;56.03
68145;BME280;55400;51.824;-0.196;2023-03-25T17:23:20;99640.01;;;13.17;55.99
68145;BME280;55400;51.824;-0.196;2023-03-25T17:27:22;99635.63;;;13.18;54.91
68145;BME280;55400;51.824;-0.196;2023-03-25T17:31:24;99635.63;;;13.19;54.91
68145;BME280;55400;51.824;-0.196;2023-03-25T17:35:22;99640.09;;;13.13;51.28
68145;BME280;55400;51.824;-0.196;2023-03-25T17:43:19;99642.55;;;13.10;51.29
68145;BME280;55400;51.824;-0.196;2023-03-25T17:47:19;99642.83;;;13.00;51.29
68145;BME280;55400;51.824;-0.196;2023-03-25T17:51:20;99642.64;;;12.87;49.76
68145;BME280;55400;51.824;-0.196;2023-03-25T17:55:19;99644.2;;;12.75;50.56
68145;BME280;55400;51.824;-0.196;2023-03-25T17:59:20;99644.2;;;12.63;51.10
68145;BME280;55400;51.824;-0.196;2023-03-25T18:03:20;99637.64;;;12.51;50.89
68145;BME280;55400;51.824;-0.196;2023-03-25T18:07:19;99636.91;;;12.41;50.68
68145;BME280;55400;51.824;-0.196;2023-03-25T18:11:19;99636.18000000001;;;12.31;51.33
68145;BME280;55400;51.824;-0.196;2023-03-25T18:15:19;99635.61;;;12.22;51.44
68145;BME280;55400;51.824;-0.196;2023-03-25T18:19:20;99635.61;;;12.20;52.00
68145;BME280;55400;51.824;-0.196;2023-03-25T18:23:19;99629.42;;;12.16;52.11
68145;BME280;55400;51.824;-0.196;2023-03-25T18:27:19;99628.7;;;12.08;52.21
68145;BME280;55400;51.824;-0.196;2023-03-25T18:31:19;99628.66;;;12.03;52.13
68145;BME280;55400;51.824;-0.196;2023-03-25T18:35:19;99629.33;;;11.99;52.13
68145;BME280;55400;51.824;-0.196;2023-03-25T18:39:20;99628.45999999999;;;11.98;52.23
68145;BME280;55400;51.824;-0.196;2023-03-25T18:43:19;99630.48999999999;;;11.92;52.55
68145;BME280;55400;51.824;-0.196;2023-03-25T18:47:19;99630.48999999999;;;11.84;52.25
68145;BME280;55400;51.824;-0.196;2023-03-25T18:51:19;99630.53;;;11.76;52.78
68145;BME280;55400;51.824;-0.196;2023-03-25T18:55:19;99626.0;;;11.69;53.15
68145;BME280;55400;51.824;-0.196;2023-03-25T18:59:19;99632.12;;;11.62;53.03
68145;BME280;55400;51.824;-0.196;2023-03-25T19:03:20;99628.66;;;11.56;53.38
68145;BME280;55400;51.824;-0.196;2023-03-25T19:07:19;99636.92;;;11.58;54.25
68145;BME280;55400;51.824;-0.196;2023-03-25T19:11:19;99638.51;;;11.57;53.84
68145;BME280;55400;51.824;-0.196;2023-03-25T19:15:20;99638.51;;;11.62;53.84
68145;BME280;55400;51.824;-0.196;2023-03-25T19:19:19;99636.27;;;11.58;53.85
68145;BME280;55400;51.824;-0.196;2023-03-25T19:23:20;99636.69;;;11.59;53.46
68145;BME280;55400;51.824;-0.196;2023-03-25T19:27:19;99640.84;;;11.61;53.52
68145;BME280;55400;51.824;-0.196;2023-03-25T19:35:20;99649.77;;;11.64;53.88
68145;BME280;55400;51.824;-0.196;2023-03-25T19:39:19;99649.77;;;11.66;53.97
68145;BME280;55400;51.824;-0.196;2023-03-25T19:43:20;99649.94;;;11.68;53.85
68145;BME280;55400;51.824;-0.196;2023-03-25T19:47:19;99648.6;;;11.69;53.90
68145;BME280;55400;51.824;-0.196;2023-03-25T19:51:19;99644.87000000001;;;11.65;53.90
68145;BME280;55400;51.824;-0.196;2023-03-25T19:55:20;99639.61;;;11.61;54.42
68145;BME280;55400;51.824;-0.196;2023-03-25T19:59:19;99639.61;;;11.56;54.42
68145;BME280;55400;51.824;-0.196;2023-03-25T20:03:19;99635.28;;;11.50;54.81
68145;BME280;55400;51.824;-0.196;2023-03-25T20:11:20;99629.97;;;11.48;55.29
68145;BME280;55400;51.824;-0.196;2023-03-25T20:15:20;99623.27;;;11.47;55.37
68145;BME280;55400;51.824;-0.196;2023-03-25T20:23:20;99619.33;;;11.42;56.01
68145;BME280;55400;51.824;-0.196;2023-03-25T20:31:20;99607.48;;;11.39;55.89
68145;BME280;55400;51.824;-0.196;2023-03-25T20:35:20;99607.48;;;11.35;56.28
68145;BME280;55400;51.824;-0.196;2023-03-25T20:39:20;99609.11;;;11.32;57.31
68145;BME280;55400;51.824;-0.196;2023-03-25T20:43:20;99610.55;;;11.29;57.31
68145;BME280;55400;51.824;-0.196;2023-03-25T20:47:20;99609.16;;;11.28;58.45
68145;BME280;55400;51.824;-0.196;2023-03-25T20:55:20;99607.6;;;11.26;58.88
68145;BME280;55400;51.824;-0.196;2023-03-25T20:59:20;99597.52;;;11.27;59.60
68145;BME280;55400;51.824;-0.196;2023-03-25T21:03:20;99596.1;;;11.28;59.82
68145;BME280;55400;51.824;-0.196;2023-03-25T21:07:20;99595.9;;;11.32;59.82
68145;BME280;55400;51.824;-0.196;2023-03-25T21:11:20;99595.9;;;11.34;59.80
68145;BME280;55400;51.824;-0.196;2023-03-25T21:19:20;99590.17;;;11.31;60.45
68145;BME280;55400;51.824;-0.196;2023-03-25T21:27:20;99581.33;;;11.30;60.76
68145;BME280;55400;51.824;-0.196;2023-03-25T21:35:20;99584.12;;;11.31;60.94
68145;BME280;55400;51.824;-0.196;2023-03-25T21:39:20;99583.06;;;11.33;60.97
68145;BME280;55400;51.824;-0.196;2023-03-25T21:43:20;99583.64;;;11.22;60.92
68145;BME280;55400;51.824;-0.196;2023-03-25T21:47:20;99581.98;;;11.20;61.46
68145;BME280;55400;51.824;-0.196;2023-03-25T21:51:20;99577.81999999999;;;11.22;61.96
68145;BME280;55400;51.824;-0.196;2023-03-25T21:59:20;99573.83;;;11.24;62.16
68145;BME280;55400;51.824;-0.196;2023-03-25T22:03:20;99572.03;;;11.23;62.61
68145;BME280;55400;51.824;-0.196;2023-03-25T22:11:20;99560.44;;;11.18;63.05
68145;BME280;55400;51.824;-0.196;2023-03-25T22:15:20;99560.19;;;11.14;64.01
68145;BME280;55400;51.824;-0.196;2023-03-25T22:19:20;99560.19;;;11.13;64.01
68145;BME280;55400;51.824;-0.196;2023-03-25T22:23:20;99555.78;;;11.15;64.61
68145;BME280;55400;51.824;-0.196;2023-03-25T22:27:20;99555.78;;;11.18;64.61
68145;BME280;55400;51.824;-0.196;2023-03-25T22:35:20;99542.04999999999;;;11.15;65.37
68145;BME280;55400;51.824;-0.196;2023-03-25T22:39:20;99538.31;;;11.13;65.64
68145;BME280;55400;51.824;-0.196;2023-03-25T22:55:20;99487.49;;;11.10;66.58
68145;BME280;55400;51.824;-0.196;2023-03-25T22:59:20;99487.49;;;11.09;66.58
68145;BME280;55400;51.824;-0.196;2023-03-25T23:03:20;99471.99;;;11.04;66.43
68145;BME280;55400;51.824;-0.196;2023-03-25T23:07:20;99471.99;;;11.01;66.43
68145;BME280;55400;51.824;-0.196;2023-03-25T23:11:21;99448.06999999999;;;10.97;66.43
68145;BME280;55400;51.824;-0.196;2023-03-25T23:15:20;99448.06999999999;;;10.94;66.38